createdAt,value
2022-08-01T00:01:39.808Z,2.63
2022-08-01T00:04:07.207Z,2.88
2022-08-01T00:06:34.607Z,3.00
2022-08-01T00:09:02.949Z,2.83
2022-08-01T00:11:30.690Z,2.80
2022-08-01T00:13:58.508Z,3.08
2022-08-01T00:16:25.921Z,2.72
2022-08-01T00:18:55.302Z,3.28
2022-08-01T00:21:23.019Z,2.70
2022-08-01T00:23:50.445Z,2.83
2022-08-01T00:26:17.799Z,2.80
2022-08-01T00:28:45.381Z,3.00
2022-08-01T00:31:13.706Z,3.70
2022-08-01T00:33:41.032Z,2.80
2022-08-01T00:36:08.388Z,2.65
2022-08-01T00:38:35.811Z,2.75
2022-08-01T00:41:04.605Z,2.88
2022-08-01T00:43:32.056Z,2.67
2022-08-01T00:45:59.816Z,2.75
2022-08-01T00:48:27.341Z,2.60
2022-08-01T00:50:54.693Z,2.80
2022-08-01T00:53:21.975Z,2.50
2022-08-01T00:55:49.536Z,3.00
2022-08-01T00:58:17.816Z,2.50
2022-08-01T01:00:52.704Z,2.45
2022-08-01T01:03:57.904Z,2.65
2022-08-01T01:06:32.538Z,2.78
2022-08-01T01:09:18.603Z,2.88
2022-08-01T01:12:24.509Z,3.30
2022-08-01T01:15:03.813Z,2.47
2022-08-01T01:17:49.927Z,3.20
2022-08-01T01:20:18.896Z,2.60
2022-08-01T01:22:59.478Z,2.80
2022-08-01T01:25:38.836Z,3.03
2022-08-01T01:28:24.208Z,3.05
2022-08-01T01:30:53.240Z,2.78
2022-08-01T01:33:22.354Z,2.60
2022-08-01T01:35:54.084Z,2.45
2022-08-01T01:38:23.951Z,2.53
2022-08-01T01:40:53.341Z,2.90
2022-08-01T01:43:21.740Z,2.78
2022-08-01T01:45:57.333Z,2.95
2022-08-01T01:48:25.324Z,2.63
2022-08-01T01:50:53.543Z,2.42
2022-08-01T01:53:22.744Z,2.35
2022-08-01T01:55:53.004Z,2.67
2022-08-01T01:58:21.600Z,2.78
2022-08-01T02:00:51.232Z,2.75
2022-08-01T02:03:20.829Z,2.63
2022-08-01T02:05:49.010Z,3.10
2022-08-01T02:08:17.760Z,3.00
2022-08-01T02:11:06.484Z,3.00
2022-08-01T02:13:36.434Z,2.65
2022-08-01T02:16:04.623Z,3.00
2022-08-01T02:18:33.973Z,3.35
2022-08-01T02:21:06.283Z,3.35
2022-08-01T02:23:35.304Z,3.55
2022-08-01T02:26:10.816Z,3.72
2022-08-01T02:29:07.047Z,3.75
2022-08-01T02:31:37.165Z,4.00
2022-08-01T02:34:07.514Z,4.32
2022-08-01T02:36:38.486Z,3.85
2022-08-01T02:39:19.966Z,3.90
2022-08-01T02:41:49.930Z,3.33
2022-08-01T02:44:26.110Z,3.70
2022-08-01T02:46:57.498Z,3.95
2022-08-01T02:49:25.815Z,3.97
2022-08-01T02:51:57.011Z,4.38
2022-08-01T02:54:24.934Z,4.13
2022-08-01T02:56:53.049Z,4.22
2022-08-01T02:59:26.581Z,4.90
2022-08-01T03:02:00.869Z,5.18
2022-08-01T03:11:46.481Z,4.72
2022-08-01T03:14:37.740Z,4.53
2022-08-01T03:17:08.254Z,4.30
2022-08-01T03:19:38.952Z,3.95
2022-08-01T03:38:14.696Z,5.43
2022-08-01T03:40:46.636Z,5.22
2022-08-01T03:43:36.579Z,5.47
2022-08-01T03:46:09.518Z,5.55
2022-08-01T03:48:41.142Z,5.15
2022-08-01T03:51:09.953Z,5.28
2022-08-01T03:53:42.366Z,5.40
2022-08-01T03:56:10.836Z,5.63
2022-08-01T03:58:40.453Z,5.20
2022-08-01T04:01:15.595Z,5.00
2022-08-01T04:03:44.877Z,4.90
2022-08-01T04:06:15.556Z,4.88
2022-08-01T04:08:43.067Z,4.53
2022-08-01T04:11:11.287Z,4.53
2022-08-01T04:13:38.711Z,4.88
2022-08-01T04:16:18.213Z,4.20
2022-08-01T04:18:45.911Z,4.43
2022-08-01T04:21:14.248Z,4.40
2022-08-01T04:23:42.975Z,4.20
2022-08-01T04:26:11.406Z,4.88
2022-08-01T04:28:39.525Z,4.10
2022-08-01T04:31:10.810Z,3.92
2022-08-01T04:33:40.291Z,4.18
2022-08-01T04:36:08.495Z,4.63
2022-08-01T04:38:37.939Z,3.83
2022-08-01T04:41:09.483Z,4.57
2022-08-01T04:43:38.179Z,4.15
2022-08-01T04:46:07.805Z,4.50
2022-08-01T04:48:38.165Z,4.65
2022-08-01T04:51:08.331Z,4.30
2022-08-01T04:53:35.890Z,5.38
2022-08-01T04:56:03.590Z,5.05
2022-08-01T04:58:31.480Z,4.80
2022-08-01T05:01:00.471Z,4.72
2022-08-01T05:03:27.829Z,4.80
2022-08-01T05:05:55.474Z,5.00
2022-08-01T05:08:22.807Z,5.25
2022-08-01T05:10:50.329Z,5.03
2022-08-01T05:13:17.833Z,5.03
2022-08-01T05:15:45.178Z,5.18
2022-08-01T05:18:12.743Z,4.65
2022-08-01T05:20:42.664Z,4.88
2022-08-01T05:23:10.760Z,4.82
2022-08-01T05:25:58.994Z,4.75
2022-08-01T05:28:26.672Z,4.80
2022-08-01T05:30:56.127Z,4.82
2022-08-01T05:33:23.932Z,4.85
2022-08-01T05:35:52.133Z,5.45
2022-08-01T05:38:19.617Z,5.38
2022-08-01T05:40:47.050Z,6.05
2022-08-01T05:43:14.565Z,5.65
2022-08-01T05:45:42.807Z,5.95
2022-08-01T05:48:10.211Z,5.95
2022-08-01T05:50:38.795Z,5.95
2022-08-01T05:53:06.234Z,6.55
2022-08-01T05:55:33.605Z,5.75
2022-08-01T05:58:00.922Z,6.82
2022-08-01T06:00:28.636Z,6.15
2022-08-01T06:02:56.010Z,6.93
2022-08-01T06:05:23.513Z,7.03
2022-08-01T06:07:51.925Z,6.38
2022-08-01T06:10:19.364Z,6.57
2022-08-01T06:12:46.911Z,7.15
2022-08-01T06:15:14.698Z,6.40
2022-08-01T06:17:42.366Z,6.85
2022-08-01T06:20:10.586Z,6.72
2022-08-01T06:22:44.224Z,6.80
2022-08-01T06:25:22.253Z,6.45
2022-08-01T06:27:50.679Z,6.95
2022-08-01T06:30:22.790Z,7.47
2022-08-01T06:32:50.301Z,7.18
2022-08-01T06:35:17.756Z,6.45
2022-08-01T06:37:48.146Z,6.57
2022-08-01T06:40:17.457Z,6.22
2022-08-01T06:42:47.966Z,6.38
2022-08-01T06:45:15.976Z,6.70
2022-08-01T06:47:50.833Z,6.75
2022-08-01T06:50:18.526Z,7.10
2022-08-01T06:52:46.103Z,6.75
2022-08-01T06:55:16.496Z,7.07
2022-08-01T06:57:51.401Z,6.38
2022-08-01T07:00:23.363Z,6.60
2022-08-01T07:02:55.888Z,6.85
2022-08-01T07:05:23.531Z,6.40
2022-08-01T07:07:51.926Z,6.88
2022-08-01T07:10:20.507Z,7.45
2022-08-01T07:12:48.520Z,7.53
2022-08-01T07:15:16.772Z,7.57
2022-08-01T07:17:44.560Z,6.85
2022-08-01T07:20:16.109Z,6.82
2022-08-01T07:22:48.151Z,6.53
2022-08-01T07:25:15.919Z,6.85
2022-08-01T07:27:43.366Z,5.82
2022-08-01T07:30:11.243Z,6.97
2022-08-01T07:35:46.160Z,6.05
2022-08-01T07:38:13.891Z,6.00
2022-08-01T07:40:43.107Z,7.20
2022-08-01T07:43:16.177Z,7.05
2022-08-01T07:45:46.485Z,6.80
2022-08-01T07:48:14.054Z,7.10
2022-08-01T07:50:41.393Z,6.78
2022-08-01T07:53:11.196Z,7.03
2022-08-01T07:55:38.554Z,7.22
2022-08-01T07:58:08.930Z,6.65
2022-08-01T08:00:36.287Z,6.60
2022-08-01T08:03:03.619Z,6.22
2022-08-01T08:05:52.847Z,6.00
2022-08-01T08:08:19.291Z,5.68
2022-08-01T08:10:49.425Z,6.70
2022-08-01T08:13:18.111Z,6.05
2022-08-01T08:15:48.218Z,6.15
2022-08-01T08:18:16.612Z,6.57
2022-08-01T08:20:44.621Z,7.05
2022-08-01T08:23:43.137Z,7.00
2022-08-01T08:26:14.576Z,6.50
2022-08-01T08:28:41.929Z,7.00
2022-08-01T08:31:25.711Z,7.07
2022-08-01T08:33:56.882Z,7.03
2022-08-01T08:36:28.584Z,6.60
2022-08-01T08:41:42.819Z,7.38
2022-08-01T08:44:10.950Z,6.35
2022-08-01T08:46:46.271Z,6.15
2022-08-01T08:49:18.039Z,6.35
2022-08-01T08:51:49.158Z,6.88
2022-08-01T08:54:18.506Z,6.80
2022-08-01T08:56:47.528Z,6.38
2022-08-01T08:59:15.477Z,7.07
2022-08-01T09:01:44.011Z,6.18
2022-08-01T09:04:14.400Z,6.10
2022-08-01T09:06:44.906Z,7.60
2022-08-01T09:09:12.205Z,6.43
2022-08-01T09:11:39.606Z,5.80
2022-08-01T09:14:12.124Z,6.22
2022-08-01T09:16:48.316Z,6.18
2022-08-01T09:19:40.281Z,6.45
2022-08-01T09:22:11.931Z,6.03
2022-08-01T09:24:40.402Z,6.70
2022-08-01T09:27:26.575Z,6.32
2022-08-01T09:30:01.638Z,6.45
2022-08-01T09:32:35.710Z,6.53
2022-08-01T09:35:30.125Z,7.05
2022-08-01T09:38:18.690Z,6.40
2022-08-01T09:41:01.440Z,6.88
2022-08-01T09:43:31.368Z,7.00
2022-08-01T09:46:00.003Z,7.18
2022-08-01T09:48:29.847Z,7.03
2022-08-01T09:51:04.223Z,6.63
2022-08-01T09:53:51.361Z,6.68
2022-08-01T09:56:22.308Z,6.82
2022-08-01T09:58:58.863Z,7.22
2022-08-01T10:01:37.130Z,7.35
2022-08-01T10:04:09.643Z,7.93
2022-08-01T10:06:39.499Z,7.90
2022-08-01T10:09:06.920Z,7.80
2022-08-01T10:11:36.197Z,8.50
2022-08-01T10:14:04.204Z,8.02
2022-08-01T10:16:31.991Z,7.60
2022-08-01T10:19:00.139Z,7.35
2022-08-01T10:21:56.471Z,7.50
2022-08-01T10:24:18.783Z,7.07
2022-08-01T10:26:49.397Z,7.70
2022-08-01T10:29:44.923Z,8.27
2022-08-01T10:32:10.175Z,8.27
2022-08-01T10:34:38.456Z,8.38
2022-08-01T10:37:15.910Z,9.05
2022-08-01T10:39:43.925Z,7.97
2022-08-01T10:42:15.669Z,7.78
2022-08-01T10:44:43.722Z,8.65
2022-08-01T10:47:19.453Z,8.45
2022-08-01T10:49:56.571Z,8.70
2022-08-01T10:52:26.463Z,8.60
2022-08-01T10:55:07.259Z,9.30
2022-08-01T11:10:34.386Z,13.68
2022-08-01T11:13:04.882Z,11.60
2022-08-01T11:15:34.784Z,14.60
2022-08-01T11:18:05.761Z,17.25
2022-08-01T11:20:39.522Z,18.35
2022-08-01T11:23:16.647Z,15.63
2022-08-01T11:26:05.813Z,19.17
2022-08-01T11:28:36.766Z,20.48
2022-08-01T11:31:15.072Z,22.50
2022-08-01T11:33:45.821Z,22.75
2022-08-01T11:36:55.387Z,18.20
2022-08-01T11:39:15.550Z,22.63
2022-08-01T11:41:44.253Z,22.88
2022-08-01T11:44:16.179Z,19.75
2022-08-01T11:47:13.673Z,12.43
2022-08-01T11:49:50.047Z,14.73
2022-08-01T11:52:25.873Z,11.90
2022-08-01T11:54:57.718Z,12.45
2022-08-01T11:57:34.637Z,23.77
2022-08-01T12:00:19.674Z,27.27
2022-08-01T12:02:49.151Z,22.95
2022-08-01T12:05:24.789Z,19.20
2022-08-01T12:07:54.142Z,17.33
2022-08-01T12:10:27.911Z,18.95
2022-08-01T12:15:45.847Z,15.07
2022-08-01T12:18:14.841Z,15.00
2022-08-01T12:20:56.206Z,14.60
2022-08-01T12:23:28.785Z,13.98
2022-08-01T12:25:56.583Z,15.02
2022-08-01T12:28:27.312Z,19.20
2022-08-01T12:30:56.064Z,15.93
2022-08-01T12:33:24.087Z,15.48
2022-08-01T12:35:53.869Z,17.42
2022-08-01T12:38:26.887Z,16.77
2022-08-01T12:40:55.052Z,17.30
2022-08-01T12:43:38.362Z,15.48
2022-08-01T12:46:12.572Z,14.40
2022-08-01T12:48:40.116Z,15.95
2022-08-01T12:51:18.641Z,19.10
2022-08-01T12:53:49.881Z,20.00
2022-08-01T12:56:35.642Z,19.00
2022-08-01T12:59:27.847Z,19.55
2022-08-01T13:01:59.561Z,20.33
2022-08-01T13:04:28.137Z,21.27
2022-08-01T13:06:57.130Z,22.05
2022-08-01T13:09:25.615Z,23.70
2022-08-01T13:12:03.658Z,24.75
2022-08-01T13:14:32.221Z,22.27
2022-08-01T13:17:00.043Z,26.30
2022-08-01T13:19:44.451Z,23.23
2022-08-01T13:22:12.812Z,19.48
2022-08-01T13:24:40.447Z,19.75
2022-08-01T13:27:08.423Z,18.58
2022-08-01T13:32:32.442Z,18.10
2022-08-01T13:35:25.650Z,17.08
2022-08-01T13:37:57.923Z,19.60
2022-08-01T13:40:31.502Z,20.08
2022-08-01T13:43:03.812Z,18.13
2022-08-01T13:45:34.242Z,18.38
2022-08-01T13:48:12.706Z,18.15
2022-08-01T13:50:57.419Z,17.20
2022-08-01T13:53:35.360Z,17.60
2022-08-01T13:56:03.118Z,27.65
2022-08-01T13:58:30.801Z,17.27
2022-08-01T14:00:58.220Z,16.60
2022-08-01T14:03:26.580Z,15.15
2022-08-01T14:06:02.644Z,14.82
2022-08-01T14:08:30.534Z,16.52
2022-08-01T14:11:02.302Z,15.10
2022-08-01T14:13:40.205Z,16.70
2022-08-01T14:16:15.518Z,18.25
2022-08-01T14:18:44.250Z,16.52
2022-08-01T14:21:23.573Z,16.80
2022-08-01T14:23:52.524Z,18.20
2022-08-01T14:26:23.072Z,18.55
2022-08-01T14:28:53.646Z,18.15
2022-08-01T14:31:21.868Z,17.48
2022-08-01T14:33:51.743Z,16.23
2022-08-01T14:36:29.282Z,15.48
2022-08-01T14:39:05.487Z,14.10
2022-08-01T14:41:35.355Z,13.35
2022-08-01T14:44:04.662Z,13.65
2022-08-01T14:46:34.198Z,13.60
2022-08-01T14:49:02.542Z,12.18
2022-08-01T14:51:35.196Z,12.02
2022-08-01T14:54:03.904Z,15.30
2022-08-01T14:56:31.865Z,14.88
2022-08-01T14:59:00.679Z,15.00
2022-08-01T15:01:28.397Z,13.43
2022-08-01T15:03:57.128Z,13.13
2022-08-01T15:06:24.604Z,14.40
2022-08-01T15:08:55.828Z,13.93
2022-08-01T15:11:27.191Z,15.02
2022-08-01T15:14:22.593Z,14.35
2022-08-01T15:16:50.394Z,14.60
2022-08-01T15:19:18.601Z,16.30
2022-08-01T15:21:49.468Z,15.57
2022-08-01T15:24:17.477Z,17.95
2022-08-01T15:26:47.092Z,16.35
2022-08-01T15:29:18.238Z,17.92
2022-08-01T15:31:46.700Z,16.13
2022-08-01T15:34:18.145Z,11.13
2022-08-01T15:36:48.639Z,11.75
2022-08-01T15:39:25.453Z,13.07
2022-08-01T15:41:54.247Z,12.32
2022-08-01T15:44:25.809Z,11.90
2022-08-01T15:46:54.546Z,12.45
2022-08-01T15:49:25.277Z,12.80
2022-08-01T15:51:56.344Z,10.63
2022-08-01T15:54:29.811Z,10.65
2022-08-01T15:57:04.228Z,10.90
2022-08-01T15:59:33.547Z,8.65
2022-08-01T16:02:04.720Z,7.93
2022-08-01T16:04:33.920Z,9.90
2022-08-01T16:07:02.149Z,9.73
2022-08-01T16:09:29.846Z,9.55
2022-08-01T16:11:58.391Z,7.82
2022-08-01T16:14:26.286Z,7.28
2022-08-01T16:16:56.529Z,7.57
2022-08-01T16:19:24.429Z,7.95
2022-08-01T16:21:52.601Z,9.32
2022-08-01T16:24:21.623Z,13.52
2022-08-01T16:26:52.379Z,8.57
2022-08-01T16:29:23.379Z,10.10
2022-08-01T16:32:06.719Z,9.73
2022-08-01T16:34:41.414Z,11.48
2022-08-01T16:37:15.242Z,13.73
2022-08-01T16:39:42.839Z,16.35
2022-08-01T16:42:13.477Z,15.32
2022-08-01T16:44:41.642Z,20.63
2022-08-01T16:47:10.090Z,17.40
2022-08-01T16:49:38.954Z,11.93
2022-08-01T16:52:09.929Z,8.88
2022-08-01T16:54:41.233Z,10.88
2022-08-01T16:57:13.449Z,12.32
2022-08-01T16:59:57.848Z,10.77
2022-08-01T17:02:34.398Z,10.88
2022-08-01T17:05:08.378Z,12.77
2022-08-01T17:07:56.506Z,12.98
2022-08-01T17:10:42.490Z,12.32
2022-08-01T17:13:17.585Z,9.05
2022-08-01T17:15:48.166Z,8.95
2022-08-01T17:18:17.438Z,10.65
2022-08-01T17:21:01.820Z,10.52
2022-08-01T17:23:51.319Z,10.60
2022-08-01T17:26:25.749Z,9.13
2022-08-01T17:29:07.384Z,8.75
2022-08-01T17:34:27.501Z,10.90
2022-08-01T17:37:07.489Z,11.75
2022-08-01T17:39:47.661Z,13.02
2022-08-01T17:42:15.979Z,11.40
2022-08-01T17:44:52.082Z,12.02
2022-08-01T17:47:47.965Z,9.48
2022-08-01T17:50:14.256Z,8.18
2022-08-01T17:55:58.870Z,6.97
2022-08-01T17:58:52.275Z,6.38
2022-08-01T18:01:20.925Z,11.77
2022-08-01T18:03:58.800Z,6.68
2022-08-01T18:06:29.709Z,5.70
2022-08-01T18:12:09.196Z,5.05
2022-08-01T18:14:49.191Z,6.03
2022-08-01T18:17:20.262Z,4.38
2022-08-01T18:22:45.188Z,7.43
2022-08-01T18:25:17.551Z,4.70
2022-08-01T18:28:23.198Z,4.25
2022-08-01T18:30:37.839Z,3.80
2022-08-01T18:33:09.675Z,5.28
2022-08-01T18:35:52.153Z,4.55
2022-08-01T18:38:24.186Z,4.47
2022-08-01T18:41:02.942Z,4.10
2022-08-01T18:43:33.606Z,4.10
2022-08-01T18:46:06.666Z,5.80
2022-08-01T18:48:35.844Z,5.43
2022-08-01T18:51:12.595Z,6.10
2022-08-01T18:56:33.366Z,4.32
2022-08-01T18:59:11.660Z,4.13
2022-08-01T19:01:41.490Z,5.20
2022-08-01T19:04:13.988Z,4.75
2022-08-01T19:06:47.488Z,4.80
2022-08-01T19:09:20.487Z,5.57
2022-08-01T19:11:51.182Z,5.50
2022-08-01T19:14:20.509Z,5.15
2022-08-01T19:16:49.031Z,5.43
2022-08-01T19:19:24.753Z,5.53
2022-08-01T19:21:56.106Z,6.22
2022-08-01T19:24:26.190Z,6.05
2022-08-01T19:27:05.068Z,6.20
2022-08-01T19:29:42.003Z,6.65
2022-08-01T19:32:12.775Z,6.38
2022-08-01T19:35:26.039Z,7.20
2022-08-01T19:38:26.753Z,7.78
2022-08-01T19:41:35.505Z,7.47
2022-08-01T19:43:59.013Z,8.27
2022-08-01T19:46:26.615Z,9.20
2022-08-01T19:48:56.183Z,9.38
2022-08-01T19:51:33.063Z,9.27
2022-08-01T19:54:06.476Z,8.20
2022-08-01T19:56:40.703Z,9.50
2022-08-01T19:59:08.526Z,9.80
2022-08-01T20:01:37.092Z,9.05
2022-08-01T20:04:05.201Z,10.27
2022-08-01T20:06:35.436Z,10.32
2022-08-01T20:09:04.740Z,10.15
2022-08-01T20:11:37.964Z,10.05
2022-08-01T20:14:16.473Z,9.77
2022-08-01T20:16:46.625Z,9.88
2022-08-01T20:19:17.858Z,9.40
2022-08-01T20:22:02.323Z,8.32
2022-08-01T20:24:41.261Z,8.68
2022-08-01T20:27:15.071Z,8.25
2022-08-01T20:29:46.883Z,8.80
2022-08-01T20:32:17.586Z,9.13
2022-08-01T20:34:45.254Z,9.45
2022-08-01T20:37:14.712Z,9.65
2022-08-01T20:39:45.108Z,9.38
2022-08-01T20:42:14.398Z,10.50
2022-08-01T20:44:50.542Z,9.32
2022-08-01T20:47:18.207Z,9.85
2022-08-01T20:49:47.780Z,10.77
2022-08-01T20:52:16.885Z,10.05
2022-08-01T20:54:45.382Z,9.73
2022-08-01T20:57:25.592Z,9.88
2022-08-01T21:00:02.554Z,9.85
2022-08-01T21:02:35.936Z,9.05
2022-08-01T21:05:08.900Z,10.00
2022-08-01T21:07:42.882Z,9.30
2022-08-01T21:10:13.910Z,9.68
2022-08-01T21:12:50.222Z,9.32
2022-08-01T21:15:30.336Z,9.02
2022-08-01T21:18:07.836Z,8.73
2022-08-01T21:20:40.011Z,8.98
2022-08-01T21:23:26.930Z,8.63
2022-08-01T21:25:58.209Z,9.35
2022-08-01T21:28:27.306Z,9.18
2022-08-01T21:30:59.063Z,8.48
2022-08-01T21:33:28.666Z,8.50
2022-08-01T21:36:02.627Z,8.25
2022-08-01T21:38:40.392Z,9.52
2022-08-01T21:41:08.657Z,8.60
2022-08-01T21:43:37.078Z,11.93
2022-08-01T21:46:07.253Z,9.23
2022-08-01T21:48:35.922Z,9.10
2022-08-01T21:51:28.022Z,8.88
2022-08-01T21:54:10.066Z,10.00
2022-08-01T21:56:43.992Z,9.48
2022-08-01T21:59:17.605Z,10.77
2022-08-01T22:01:54.834Z,10.48
2022-08-01T22:04:34.376Z,11.07
2022-08-01T22:07:03.335Z,11.45
2022-08-01T22:09:38.961Z,11.52
2022-08-01T22:12:07.853Z,13.73
2022-08-01T22:14:43.349Z,13.43
2022-08-01T22:17:14.576Z,12.80
2022-08-01T22:19:45.052Z,12.55
2022-08-01T22:22:44.525Z,12.55
2022-08-01T22:25:02.831Z,10.70
2022-08-01T22:28:08.596Z,11.90
2022-08-01T22:30:18.921Z,11.27
2022-08-01T22:33:07.873Z,10.90
2022-08-01T22:35:35.679Z,10.00
2022-08-01T22:38:07.647Z,8.05
2022-08-01T22:40:40.509Z,7.50
2022-08-01T22:43:17.384Z,7.20
2022-08-01T22:46:06.661Z,6.65
2022-08-01T22:49:09.429Z,6.97
2022-08-01T22:51:55.781Z,6.38
2022-08-01T22:54:30.646Z,6.30
2022-08-01T22:57:01.212Z,5.85
2022-08-01T22:59:42.883Z,5.05
2022-08-01T23:02:16.308Z,6.25
2022-08-01T23:04:46.628Z,5.25
2022-08-01T23:07:20.121Z,5.00
2022-08-01T23:09:53.785Z,5.05
2022-08-01T23:12:24.551Z,4.78
2022-08-01T23:14:57.896Z,4.93
2022-08-01T23:17:29.301Z,4.95
2022-08-01T23:20:02.108Z,3.97
2022-08-01T23:22:31.625Z,4.07
2022-08-01T23:25:04.031Z,3.30
2022-08-01T23:27:51.749Z,3.67
2022-08-01T23:30:27.784Z,4.13
2022-08-01T23:32:55.417Z,4.72
2022-08-01T23:35:24.349Z,5.07
2022-08-01T23:37:52.511Z,5.03
2022-08-01T23:40:20.158Z,5.45
2022-08-01T23:42:47.486Z,5.95
2022-08-01T23:45:14.964Z,6.53
2022-08-01T23:47:42.747Z,6.40
2022-08-01T23:50:11.542Z,6.80
2022-08-01T23:52:48.613Z,6.97
2022-08-01T23:55:33.382Z,6.57
2022-08-01T23:58:07.045Z,5.90
